sensor_id;sensor_type;location;lat;lon;timestamp;pressure;altitude;pressure_sealevel;temperature;humidity
77725;BME280;66892;53.236;6.550;2023-07-02T00:00:34;100557.03;;;14.41;78.46
77725;BME280;66892;53.236;6.550;2023-07-02T00:03:02;100549.13;;;14.38;78.34
77725;BME280;66892;53.236;6.550;2023-07-02T00:05:28;100559.09;;;14.28;79.13
77725;BME280;66892;53.236;6.550;2023-07-02T00:07:54;100564.47;;;14.25;79.63
77725;BME280;66892;53.236;6.550;2023-07-02T00:10:20;100559.22;;;14.22;79.88
77725;BME280;66892;53.236;6.550;2023-07-02T00:12:46;100548.66;;;14.19;79.77
77725;BME280;66892;53.236;6.550;2023-07-02T00:15:13;100559.25;;;14.20;79.99
77725;BME280;66892;53.236;6.550;2023-07-02T00:17:40;100552.31;;;14.13;80.44
77725;BME280;66892;53.236;6.550;2023-07-02T00:20:07;100557.78;;;14.07;80.70
77725;BME280;66892;53.236;6.550;2023-07-02T00:22:40;100555.25;;;14.01;81.04
77725;BME280;66892;53.236;6.550;2023-07-02T00:25:07;100555.16;;;14.06;81.15
77725;BME280;66892;53.236;6.550;2023-07-02T00:27:34;100556.81;;;14.10;80.50
77725;BME280;66892;53.236;6.550;2023-07-02T00:30:00;100551.47;;;14.11;80.43
77725;BME280;66892;53.236;6.550;2023-07-02T00:32:26;100557.63;;;14.13;80.37
77725;BME280;66892;53.236;6.550;2023-07-02T00:34:53;100548.88;;;14.08;80.66
77725;BME280;66892;53.236;6.550;2023-07-02T00:37:19;100549.03;;;14.01;81.04
77725;BME280;66892;53.236;6.550;2023-07-02T00:39:45;100547.28;;;14.01;81.12
77725;BME280;66892;53.236;6.550;2023-07-02T00:42:11;100553.59;;;13.96;80.90
77725;BME280;66892;53.236;6.550;2023-07-02T00:44:38;100551.16;;;13.87;81.23
77725;BME280;66892;53.236;6.550;2023-07-02T00:47:06;100553.22;;;13.71;82.41
77725;BME280;66892;53.236;6.550;2023-07-02T00:49:33;100556.13;;;13.60;82.88
77725;BME280;66892;53.236;6.550;2023-07-02T00:52:00;100555.38;;;13.52;83.15
77725;BME280;66892;53.236;6.550;2023-07-02T00:54:27;100549.16;;;13.55;83.06
77725;BME280;66892;53.236;6.550;2023-07-02T00:56:54;100553.41;;;13.63;82.97
77725;BME280;66892;53.236;6.550;2023-07-02T00:59:20;100552.59;;;13.60;83.30
77725;BME280;66892;53.236;6.550;2023-07-02T01:01:46;100553.41;;;13.63;82.83
77725;BME280;66892;53.236;6.550;2023-07-02T01:04:18;100556.91;;;13.65;82.89
77725;BME280;66892;53.236;6.550;2023-07-02T01:06:44;100549.00;;;13.62;83.07
77725;BME280;66892;53.236;6.550;2023-07-02T01:09:12;100537.47;;;13.62;82.94
77725;BME280;66892;53.236;6.550;2023-07-02T01:11:40;100539.31;;;13.58;83.37
77725;BME280;66892;53.236;6.550;2023-07-02T01:14:09;100541.91;;;13.63;82.93
77725;BME280;66892;53.236;6.550;2023-07-02T01:16:37;100542.91;;;13.56;83.62
77725;BME280;66892;53.236;6.550;2023-07-02T01:19:11;100538.69;;;13.47;83.86
77725;BME280;66892;53.236;6.550;2023-07-02T01:21:38;100537.81;;;13.45;84.27
77725;BME280;66892;53.236;6.550;2023-07-02T01:24:06;100537.84;;;13.44;83.92
77725;BME280;66892;53.236;6.550;2023-07-02T01:26:33;100535.31;;;13.38;84.68
77725;BME280;66892;53.236;6.550;2023-07-02T01:29:00;100539.75;;;13.39;84.42
77725;BME280;66892;53.236;6.550;2023-07-02T01:31:26;100537.25;;;13.30;84.87
77725;BME280;66892;53.236;6.550;2023-07-02T01:33:52;100532.06;;;13.24;85.23
77725;BME280;66892;53.236;6.550;2023-07-02T01:36:18;100533.94;;;13.18;85.38
77725;BME280;66892;53.236;6.550;2023-07-02T01:38:46;100540.19;;;13.14;85.94
77725;BME280;66892;53.236;6.550;2023-07-02T01:41:12;100531.44;;;13.09;86.15
77725;BME280;66892;53.236;6.550;2023-07-02T01:43:38;100536.75;;;13.08;86.34
77725;BME280;66892;53.236;6.550;2023-07-02T01:46:04;100539.50;;;13.03;86.67
77725;BME280;66892;53.236;6.550;2023-07-02T01:48:30;100535.13;;;12.99;87.13
77725;BME280;66892;53.236;6.550;2023-07-02T01:50:56;100537.09;;;12.90;87.23
77725;BME280;66892;53.236;6.550;2023-07-02T01:53:22;100536.97;;;12.94;87.46
77725;BME280;66892;53.236;6.550;2023-07-02T01:55:49;100541.44;;;12.94;87.56
77725;BME280;66892;53.236;6.550;2023-07-02T01:58:16;100539.69;;;12.93;87.36
77725;BME280;66892;53.236;6.550;2023-07-02T02:00:42;100540.72;;;12.84;87.71
77725;BME280;66892;53.236;6.550;2023-07-02T02:03:08;100541.78;;;12.74;88.53
77725;BME280;66892;53.236;6.550;2023-07-02T02:05:34;100543.50;;;12.77;88.41
77725;BME280;66892;53.236;6.550;2023-07-02T02:08:01;100545.38;;;12.70;88.53
77725;BME280;66892;53.236;6.550;2023-07-02T02:10:27;100551.47;;;12.77;88.78
77725;BME280;66892;53.236;6.550;2023-07-02T02:12:55;100543.56;;;12.72;88.52
77725;BME280;66892;53.236;6.550;2023-07-02T02:15:21;100547.94;;;12.76;89.04
77725;BME280;66892;53.236;6.550;2023-07-02T02:17:47;100556.88;;;12.71;88.93
77725;BME280;66892;53.236;6.550;2023-07-02T02:20:13;100558.69;;;12.67;88.69
77725;BME280;66892;53.236;6.550;2023-07-02T02:22:39;100559.72;;;12.58;89.50
77725;BME280;66892;53.236;6.550;2023-07-02T02:25:06;100561.50;;;12.56;89.81
77725;BME280;66892;53.236;6.550;2023-07-02T02:27:32;100558.03;;;12.53;89.89
77725;BME280;66892;53.236;6.550;2023-07-02T02:29:59;100557.19;;;12.51;90.05
77725;BME280;66892;53.236;6.550;2023-07-02T02:32:25;100569.47;;;12.58;89.75
77725;BME280;66892;53.236;6.550;2023-07-02T02:34:51;100563.22;;;12.60;89.81
77725;BME280;66892;53.236;6.550;2023-07-02T02:37:19;100566.81;;;12.56;89.32
77725;BME280;66892;53.236;6.550;2023-07-02T02:39:47;100569.50;;;12.53;89.74
77725;BME280;66892;53.236;6.550;2023-07-02T02:42:13;100570.50;;;12.48;89.84
77725;BME280;66892;53.236;6.550;2023-07-02T02:44:39;100566.06;;;12.48;90.24
77725;BME280;66892;53.236;6.550;2023-07-02T02:47:07;100571.31;;;12.51;90.56
77725;BME280;66892;53.236;6.550;2023-07-02T02:49:33;100566.03;;;12.50;89.98
77725;BME280;66892;53.236;6.550;2023-07-02T02:51:59;100573.16;;;12.48;90.28
77725;BME280;66892;53.236;6.550;2023-07-02T02:54:25;100565.19;;;12.48;90.06
77725;BME280;66892;53.236;6.550;2023-07-02T02:56:51;100566.13;;;12.44;90.84
77725;BME280;66892;53.236;6.550;2023-07-02T02:59:17;100568.78;;;12.45;90.63
77725;BME280;66892;53.236;6.550;2023-07-02T03:01:43;100570.56;;;12.43;90.52
77725;BME280;66892;53.236;6.550;2023-07-02T03:04:10;100568.00;;;12.37;91.35
77725;BME280;66892;53.236;6.550;2023-07-02T03:06:36;100564.47;;;12.38;91.42
77725;BME280;66892;53.236;6.550;2023-07-02T03:09:02;100568.88;;;12.36;90.85
77725;BME280;66892;53.236;6.550;2023-07-02T03:11:28;100569.81;;;12.35;91.27
77725;BME280;66892;53.236;6.550;2023-07-02T03:13:54;100579.34;;;12.47;91.35
77725;BME280;66892;53.236;6.550;2023-07-02T03:16:21;100563.38;;;12.51;90.84
77725;BME280;66892;53.236;6.550;2023-07-02T03:18:47;100569.50;;;12.53;90.71
77725;BME280;66892;53.236;6.550;2023-07-02T03:21:14;100578.44;;;12.48;91.21
77725;BME280;66892;53.236;6.550;2023-07-02T03:23:41;100569.66;;;12.43;91.16
77725;BME280;66892;53.236;6.550;2023-07-02T03:26:07;100567.84;;;12.46;91.40
77725;BME280;66892;53.236;6.550;2023-07-02T03:28:33;100567.78;;;12.51;91.24
77725;BME280;66892;53.236;6.550;2023-07-02T03:31:00;100570.44;;;12.49;91.38
77725;BME280;66892;53.236;6.550;2023-07-02T03:33:28;100573.97;;;12.51;91.43
77725;BME280;66892;53.236;6.550;2023-07-02T03:35:54;100579.25;;;12.54;91.19
77725;BME280;66892;53.236;6.550;2023-07-02T03:38:21;100583.41;;;12.69;90.99
77725;BME280;66892;53.236;6.550;2023-07-02T03:40:48;100583.19;;;12.83;90.47
77725;BME280;66892;53.236;6.550;2023-07-02T03:43:14;100584.75;;;12.94;89.56
77725;BME280;66892;53.236;6.550;2023-07-02T03:45:40;100582.03;;;12.99;89.07
77725;BME280;66892;53.236;6.550;2023-07-02T03:48:06;100578.50;;;13.00;88.44
77725;BME280;66892;53.236;6.550;2023-07-02T03:50:32;100567.03;;;12.96;89.05
77725;BME280;66892;53.236;6.550;2023-07-02T03:52:58;100587.41;;;12.96;89.15
77725;BME280;66892;53.236;6.550;2023-07-02T03:55:25;100582.09;;;12.96;88.99
77725;BME280;66892;53.236;6.550;2023-07-02T03:57:51;100592.59;;;13.00;89.09
77725;BME280;66892;53.236;6.550;2023-07-02T04:00:18;100588.97;;;13.09;88.54
77725;BME280;66892;53.236;6.550;2023-07-02T04:02:44;100586.16;;;13.16;88.28
77725;BME280;66892;53.236;6.550;2023-07-02T04:05:10;100586.88;;;13.26;87.65
77725;BME280;66892;53.236;6.550;2023-07-02T04:07:36;100583.25;;;13.30;87.39
77725;BME280;66892;53.236;6.550;2023-07-02T04:10:03;100590.22;;;13.36;87.33
77725;BME280;66892;53.236;6.550;2023-07-02T04:12:31;100593.78;;;13.36;87.07
77725;BME280;66892;53.236;6.550;2023-07-02T04:14:57;100593.56;;;13.47;86.78
77725;BME280;66892;53.236;6.550;2023-07-02T04:17:23;100588.84;;;13.62;86.27
77725;BME280;66892;53.236;6.550;2023-07-02T04:19:49;100585.03;;;13.76;85.21
77725;BME280;66892;53.236;6.550;2023-07-02T04:22:15;100599.81;;;13.89;84.45
77725;BME280;66892;53.236;6.550;2023-07-02T04:24:42;100598.66;;;14.02;83.73
77725;BME280;66892;53.236;6.550;2023-07-02T04:27:08;100604.69;;;14.10;83.27
77725;BME280;66892;53.236;6.550;2023-07-02T04:29:35;100602.97;;;14.07;83.11
77725;BME280;66892;53.236;6.550;2023-07-02T04:32:01;100600.09;;;14.16;83.47
77725;BME280;66892;53.236;6.550;2023-07-02T04:34:28;100605.41;;;14.18;83.37
77725;BME280;66892;53.236;6.550;2023-07-02T04:36:54;100600.97;;;14.17;83.04
77725;BME280;66892;53.236;6.550;2023-07-02T04:39:20;100608.28;;;14.09;83.41
77725;BME280;66892;53.236;6.550;2023-07-02T04:41:46;100604.94;;;13.98;83.26
77725;BME280;66892;53.236;6.550;2023-07-02T04:44:12;100599.91;;;13.84;83.86
77725;BME280;66892;53.236;6.550;2023-07-02T04:46:39;100604.53;;;13.74;84.30
77725;BME280;66892;53.236;6.550;2023-07-02T04:49:05;100602.94;;;13.66;84.52
77725;BME280;66892;53.236;6.550;2023-07-02T04:51:32;100616.38;;;13.58;85.18
77725;BME280;66892;53.236;6.550;2023-07-02T04:53:58;100610.25;;;13.55;85.57
77725;BME280;66892;53.236;6.550;2023-07-02T04:56:24;100609.28;;;13.59;84.77
77725;BME280;66892;53.236;6.550;2023-07-02T04:58:50;100604.72;;;13.65;84.84
77725;BME280;66892;53.236;6.550;2023-07-02T05:01:16;100614.34;;;13.71;84.90
77725;BME280;66892;53.236;6.550;2023-07-02T05:03:44;100618.50;;;13.84;83.70
77725;BME280;66892;53.236;6.550;2023-07-02T05:06:10;100617.41;;;13.96;83.00
77725;BME280;66892;53.236;6.550;2023-07-02T05:08:36;100617.00;;;14.55;80.06
77725;BME280;66892;53.236;6.550;2023-07-02T05:11:02;100609.59;;;15.71;74.53
77725;BME280;66892;53.236;6.550;2023-07-02T05:13:28;100623.56;;;17.24;67.47
77725;BME280;66892;53.236;6.550;2023-07-02T05:15:54;100607.53;;;18.44;63.29
77725;BME280;66892;53.236;6.550;2023-07-02T05:18:20;100616.31;;;18.93;59.25
77725;BME280;66892;53.236;6.550;2023-07-02T05:20:48;100612.25;;;18.38;60.75
77725;BME280;66892;53.236;6.550;2023-07-02T05:23:14;100610.13;;;17.76;61.51
77725;BME280;66892;53.236;6.550;2023-07-02T05:25:40;100616.13;;;17.32;62.68
77725;BME280;66892;53.236;6.550;2023-07-02T05:28:06;100620.16;;;17.19;63.38
77725;BME280;66892;53.236;6.550;2023-07-02T05:30:32;100622.34;;;17.06;63.54
77725;BME280;66892;53.236;6.550;2023-07-02T05:32:58;100626.75;;;16.81;64.34
77725;BME280;66892;53.236;6.550;2023-07-02T05:35:24;100628.34;;;17.14;64.17
77725;BME280;66892;53.236;6.550;2023-07-02T05:37:52;100628.53;;;18.32;59.82
77725;BME280;66892;53.236;6.550;2023-07-02T05:40:18;100626.72;;;18.09;60.32
77725;BME280;66892;53.236;6.550;2023-07-02T05:42:44;100630.06;;;17.68;61.43
77725;BME280;66892;53.236;6.550;2023-07-02T05:45:10;100636.16;;;17.20;63.36
77725;BME280;66892;53.236;6.550;2023-07-02T05:47:36;100646.69;;;18.47;60.86
77725;BME280;66892;53.236;6.550;2023-07-02T05:50:03;100631.38;;;19.37;57.69
77725;BME280;66892;53.236;6.550;2023-07-02T05:52:29;100645.31;;;19.87;56.24
77725;BME280;66892;53.236;6.550;2023-07-02T05:54:57;100634.09;;;19.98;54.87
77725;BME280;66892;53.236;6.550;2023-07-02T05:57:23;100654.59;;;19.80;55.44
77725;BME280;66892;53.236;6.550;2023-07-02T05:59:49;100649.28;;;19.37;56.25
77725;BME280;66892;53.236;6.550;2023-07-02T06:02:15;100655.41;;;20.41;54.44
77725;BME280;66892;53.236;6.550;2023-07-02T06:04:41;100649.94;;;21.35;51.49
77725;BME280;66892;53.236;6.550;2023-07-02T06:07:07;100639.31;;;22.00;49.21
77725;BME280;66892;53.236;6.550;2023-07-02T06:09:33;100642.19;;;22.30;48.75
77725;BME280;66892;53.236;6.550;2023-07-02T06:12:00;100646.63;;;22.31;48.25
77725;BME280;66892;53.236;6.550;2023-07-02T06:14:26;100644.75;;;22.65;47.49
77725;BME280;66892;53.236;6.550;2023-07-02T06:16:53;100643.44;;;22.08;47.60
77725;BME280;66892;53.236;6.550;2023-07-02T06:19:21;100650.63;;;22.73;46.92
77725;BME280;66892;53.236;6.550;2023-07-02T06:21:47;100655.75;;;23.54;44.44
77725;BME280;66892;53.236;6.550;2023-07-02T06:24:13;100643.19;;;23.83;43.78
77725;BME280;66892;53.236;6.550;2023-07-02T06:26:39;100644.19;;;23.96;42.23
77725;BME280;66892;53.236;6.550;2023-07-02T06:29:06;100654.44;;;23.61;42.96
77725;BME280;66892;53.236;6.550;2023-07-02T06:31:33;100658.19;;;24.02;42.91
77725;BME280;66892;53.236;6.550;2023-07-02T06:33:59;100659.66;;;24.64;41.57
77725;BME280;66892;53.236;6.550;2023-07-02T06:36:25;100656.44;;;23.87;40.78
77725;BME280;66892;53.236;6.550;2023-07-02T06:38:51;100664.00;;;22.90;43.94
77725;BME280;66892;53.236;6.550;2023-07-02T06:41:17;100673.00;;;23.51;43.48
77725;BME280;66892;53.236;6.550;2023-07-02T06:43:43;100675.16;;;22.51;44.72
77725;BME280;66892;53.236;6.550;2023-07-02T06:46:11;100688.03;;;22.62;44.00
77725;BME280;66892;53.236;6.550;2023-07-02T06:48:37;100700.31;;;23.61;41.04
77725;BME280;66892;53.236;6.550;2023-07-02T06:51:03;100687.78;;;24.34;38.99
77725;BME280;66892;53.236;6.550;2023-07-02T06:53:29;100691.53;;;23.87;40.19
77725;BME280;66892;53.236;6.550;2023-07-02T06:55:55;100702.41;;;23.72;40.28
77725;BME280;66892;53.236;6.550;2023-07-02T06:58:21;100683.31;;;23.14;41.60
77725;BME280;66892;53.236;6.550;2023-07-02T07:00:47;100702.28;;;22.96;42.64
77725;BME280;66892;53.236;6.550;2023-07-02T07:03:16;100705.94;;;23.11;41.33
77725;BME280;66892;53.236;6.550;2023-07-02T07:05:42;100708.47;;;23.14;42.12
77725;BME280;66892;53.236;6.550;2023-07-02T07:08:08;100720.72;;;24.10;41.01
77725;BME280;66892;53.236;6.550;2023-07-02T07:10:34;100710.88;;;24.82;37.31
77725;BME280;66892;53.236;6.550;2023-07-02T07:13:00;100712.81;;;25.47;36.53
77725;BME280;66892;53.236;6.550;2023-07-02T07:15:29;100716.41;;;25.48;37.12
77725;BME280;66892;53.236;6.550;2023-07-02T07:17:55;100709.31;;;24.92;37.43
77725;BME280;66892;53.236;6.550;2023-07-02T07:20:23;100718.69;;;23.70;39.04
77725;BME280;66892;53.236;6.550;2023-07-02T07:22:49;100725.13;;;24.41;38.11
77725;BME280;66892;53.236;6.550;2023-07-02T07:25:15;100721.22;;;25.84;35.23
77725;BME280;66892;53.236;6.550;2023-07-02T07:27:41;100727.16;;;26.66;33.07
77725;BME280;66892;53.236;6.550;2023-07-02T07:30:08;100737.66;;;27.08;32.80
77725;BME280;66892;53.236;6.550;2023-07-02T07:32:34;100722.19;;;27.58;32.06
77725;BME280;66892;53.236;6.550;2023-07-02T07:35:00;100726.28;;;28.22;31.61
77725;BME280;66892;53.236;6.550;2023-07-02T07:37:27;100740.50;;;26.82;32.32
77725;BME280;66892;53.236;6.550;2023-07-02T07:39:53;100723.06;;;26.23;33.31
77725;BME280;66892;53.236;6.550;2023-07-02T07:42:19;100728.25;;;26.89;32.46
77725;BME280;66892;53.236;6.550;2023-07-02T07:44:46;100738.94;;;27.39;31.61
77725;BME280;66892;53.236;6.550;2023-07-02T07:47:12;100735.94;;;28.02;30.95
77725;BME280;66892;53.236;6.550;2023-07-02T07:49:38;100732.38;;;28.02;29.90
77725;BME280;66892;53.236;6.550;2023-07-02T07:52:05;100730.38;;;27.93;31.10
77725;BME280;66892;53.236;6.550;2023-07-02T07:54:34;100723.91;;;27.94;30.36
77725;BME280;66892;53.236;6.550;2023-07-02T07:57:03;100735.47;;;27.50;30.89
77725;BME280;66892;53.236;6.550;2023-07-02T07:59:29;100733.91;;;27.22;31.03
77725;BME280;66892;53.236;6.550;2023-07-02T08:01:56;100728.50;;;27.93;29.97
77725;BME280;66892;53.236;6.550;2023-07-02T08:04:22;100727.81;;;27.79;30.19
77725;BME280;66892;53.236;6.550;2023-07-02T08:06:48;100731.38;;;28.03;30.63
77725;BME280;66892;53.236;6.550;2023-07-02T08:09:14;100730.28;;;26.98;31.86
77725;BME280;66892;53.236;6.550;2023-07-02T08:11:41;100739.06;;;24.92;35.71
77725;BME280;66892;53.236;6.550;2023-07-02T08:14:07;100749.13;;;23.88;38.00
77725;BME280;66892;53.236;6.550;2023-07-02T08:16:33;100760.97;;;22.26;39.65
77725;BME280;66892;53.236;6.550;2023-07-02T08:19:01;100761.72;;;20.84;43.67
77725;BME280;66892;53.236;6.550;2023-07-02T08:21:27;100774.81;;;19.92;46.76
77725;BME280;66892;53.236;6.550;2023-07-02T08:23:53;100772.06;;;19.52;48.98
77725;BME280;66892;53.236;6.550;2023-07-02T08:26:19;100786.06;;;19.14;51.79
77725;BME280;66892;53.236;6.550;2023-07-02T08:28:46;100792.91;;;18.76;54.85
77725;BME280;66892;53.236;6.550;2023-07-02T08:31:12;100801.00;;;18.51;56.75
77725;BME280;66892;53.236;6.550;2023-07-02T08:33:38;100801.56;;;18.34;57.05
77725;BME280;66892;53.236;6.550;2023-07-02T08:36:05;100811.47;;;18.32;57.92
77725;BME280;66892;53.236;6.550;2023-07-02T08:38:31;100794.25;;;18.39;57.30
77725;BME280;66892;53.236;6.550;2023-07-02T08:40:57;100790.00;;;19.05;56.44
77725;BME280;66892;53.236;6.550;2023-07-02T08:43:25;100791.81;;;21.67;49.50
77725;BME280;66892;53.236;6.550;2023-07-02T08:45:53;100785.06;;;24.04;43.53
77725;BME280;66892;53.236;6.550;2023-07-02T08:48:19;100781.69;;;24.00;41.85
77725;BME280;66892;53.236;6.550;2023-07-02T08:50:50;100784.34;;;22.92;43.64
77725;BME280;66892;53.236;6.550;2023-07-02T08:53:16;100769.94;;;24.59;40.02
77725;BME280;66892;53.236;6.550;2023-07-02T08:55:42;100787.59;;;26.03;37.59
77725;BME280;66892;53.236;6.550;2023-07-02T08:58:08;100785.44;;;25.14;38.81
77725;BME280;66892;53.236;6.550;2023-07-02T09:00:34;100797.34;;;24.09;40.63
77725;BME280;66892;53.236;6.550;2023-07-02T09:03:15;100808.72;;;22.56;43.27
77725;BME280;66892;53.236;6.550;2023-07-02T09:05:49;100814.25;;;21.30;47.56
77725;BME280;66892;53.236;6.550;2023-07-02T09:08:22;100809.47;;;20.59;49.58
77725;BME280;66892;53.236;6.550;2023-07-02T09:10:49;100809.38;;;20.20;49.68
77725;BME280;66892;53.236;6.550;2023-07-02T09:13:15;100822.41;;;20.09;50.23
77725;BME280;66892;53.236;6.550;2023-07-02T09:15:42;100819.88;;;19.41;51.48
77725;BME280;66892;53.236;6.550;2023-07-02T09:18:16;100814.34;;;19.45;51.87
77725;BME280;66892;53.236;6.550;2023-07-02T09:20:43;100831.72;;;20.42;47.92
77725;BME280;66892;53.236;6.550;2023-07-02T09:23:09;100812.16;;;22.93;41.71
77725;BME280;66892;53.236;6.550;2023-07-02T09:25:36;100792.44;;;24.60;37.59
77725;BME280;66892;53.236;6.550;2023-07-02T09:28:14;100794.41;;;25.96;34.82
77725;BME280;66892;53.236;6.550;2023-07-02T09:30:48;100811.63;;;25.95;32.45
77725;BME280;66892;53.236;6.550;2023-07-02T09:33:17;100805.28;;;25.82;32.87
77725;BME280;66892;53.236;6.550;2023-07-02T09:35:43;100809.19;;;26.44;32.93
77725;BME280;66892;53.236;6.550;2023-07-02T09:38:10;100808.91;;;27.36;31.04
77725;BME280;66892;53.236;6.550;2023-07-02T09:40:43;100784.31;;;28.10;30.12
77725;BME280;66892;53.236;6.550;2023-07-02T09:43:10;100805.03;;;28.00;29.28
77725;BME280;66892;53.236;6.550;2023-07-02T09:45:37;100809.25;;;27.44;30.67
77725;BME280;66892;53.236;6.550;2023-07-02T09:48:04;100805.91;;;27.77;28.61
77725;BME280;66892;53.236;6.550;2023-07-02T09:50:33;100807.72;;;27.40;28.74
77725;BME280;66892;53.236;6.550;2023-07-02T09:53:00;100809.88;;;26.86;29.27
77725;BME280;66892;53.236;6.550;2023-07-02T09:55:26;100808.13;;;27.59;28.22
77725;BME280;66892;53.236;6.550;2023-07-02T09:57:53;100800.34;;;28.25;26.90
77725;BME280;66892;53.236;6.550;2023-07-02T10:00:19;100805.78;;;28.37;27.57
77725;BME280;66892;53.236;6.550;2023-07-02T10:02:48;100806.63;;;27.42;29.25
77725;BME280;66892;53.236;6.550;2023-07-02T10:05:25;100820.09;;;25.36;32.41
77725;BME280;66892;53.236;6.550;2023-07-02T10:07:52;100817.19;;;23.79;36.10
77725;BME280;66892;53.236;6.550;2023-07-02T10:10:26;100819.59;;;23.05;38.42
77725;BME280;66892;53.236;6.550;2023-07-02T10:12:52;100810.09;;;22.14;40.72
77725;BME280;66892;53.236;6.550;2023-07-02T10:15:24;100826.31;;;21.40;41.81
77725;BME280;66892;53.236;6.550;2023-07-02T10:17:54;100833.38;;;21.04;43.31
77725;BME280;66892;53.236;6.550;2023-07-02T10:20:31;100827.84;;;21.07;44.14
77725;BME280;66892;53.236;6.550;2023-07-02T10:23:00;100823.63;;;20.83;45.13
77725;BME280;66892;53.236;6.550;2023-07-02T10:25:28;100832.03;;;20.55;45.81
77725;BME280;66892;53.236;6.550;2023-07-02T10:27:55;100831.22;;;22.38;41.74
77725;BME280;66892;53.236;6.550;2023-07-02T10:30:30;100822.28;;;24.14;36.60
77725;BME280;66892;53.236;6.550;2023-07-02T10:33:06;100828.66;;;23.35;37.03
77725;BME280;66892;53.236;6.550;2023-07-02T10:35:33;100822.59;;;22.32;40.22
77725;BME280;66892;53.236;6.550;2023-07-02T10:38:01;100827.53;;;21.52;42.26
77725;BME280;66892;53.236;6.550;2023-07-02T10:40:29;100835.16;;;20.85;44.49
77725;BME280;66892;53.236;6.550;2023-07-02T10:42:55;100837.56;;;20.52;45.45
77725;BME280;66892;53.236;6.550;2023-07-02T10:45:31;100842.72;;;20.36;47.26
77725;BME280;66892;53.236;6.550;2023-07-02T10:47:57;100837.81;;;20.46;46.15
77725;BME280;66892;53.236;6.550;2023-07-02T10:50:23;100847.19;;;22.43;42.98
77725;BME280;66892;53.236;6.550;2023-07-02T10:52:49;100843.03;;;22.70;41.18
77725;BME280;66892;53.236;6.550;2023-07-02T10:55:20;100840.91;;;24.49;38.21
77725;BME280;66892;53.236;6.550;2023-07-02T10:57:47;100853.50;;;25.77;35.73
77725;BME280;66892;53.236;6.550;2023-07-02T11:00:14;100847.06;;;25.92;33.97
77725;BME280;66892;53.236;6.550;2023-07-02T11:02:41;100849.09;;;25.34;33.76
77725;BME280;66892;53.236;6.550;2023-07-02T11:05:08;100848.63;;;25.27;34.54
77725;BME280;66892;53.236;6.550;2023-07-02T11:07:38;100849.00;;;25.90;33.79
77725;BME280;66892;53.236;6.550;2023-07-02T11:10:05;100859.19;;;26.53;31.92
77725;BME280;66892;53.236;6.550;2023-07-02T11:12:33;100861.84;;;25.74;33.43
77725;BME280;66892;53.236;6.550;2023-07-02T11:15:08;100872.91;;;25.29;33.80
77725;BME280;66892;53.236;6.550;2023-07-02T11:17:35;100870.50;;;25.52;33.15
77725;BME280;66892;53.236;6.550;2023-07-02T11:20:01;100867.31;;;26.13;33.43
77725;BME280;66892;53.236;6.550;2023-07-02T11:22:31;100868.63;;;26.47;32.63
77725;BME280;66892;53.236;6.550;2023-07-02T11:25:08;100868.16;;;26.28;31.05
77725;BME280;66892;53.236;6.550;2023-07-02T11:27:36;100868.31;;;26.52;31.45
77725;BME280;66892;53.236;6.550;2023-07-02T11:30:02;100872.41;;;25.22;33.09
77725;BME280;66892;53.236;6.550;2023-07-02T11:32:28;100881.28;;;24.22;34.25
77725;BME280;66892;53.236;6.550;2023-07-02T11:34:55;100889.66;;;24.47;34.59
77725;BME280;66892;53.236;6.550;2023-07-02T11:37:22;100888.16;;;24.57;33.46
77725;BME280;66892;53.236;6.550;2023-07-02T11:39:48;100867.28;;;23.84;34.94
77725;BME280;66892;53.236;6.550;2023-07-02T11:42:14;100877.72;;;23.75;35.50
77725;BME280;66892;53.236;6.550;2023-07-02T11:44:41;100887.56;;;24.52;35.08
77725;BME280;66892;53.236;6.550;2023-07-02T11:47:08;100881.97;;;25.28;33.79
77725;BME280;66892;53.236;6.550;2023-07-02T11:49:34;100868.97;;;25.75;32.95
77725;BME280;66892;53.236;6.550;2023-07-02T11:52:00;100873.69;;;25.59;32.40
77725;BME280;66892;53.236;6.550;2023-07-02T11:54:26;100880.31;;;25.11;34.29
77725;BME280;66892;53.236;6.550;2023-07-02T11:56:52;100892.97;;;24.07;35.78
77725;BME280;66892;53.236;6.550;2023-07-02T11:59:18;100901.16;;;23.43;37.33
77725;BME280;66892;53.236;6.550;2023-07-02T12:01:46;100887.06;;;23.21;36.91
77725;BME280;66892;53.236;6.550;2023-07-02T12:04:12;100892.34;;;22.89;36.66
77725;BME280;66892;53.236;6.550;2023-07-02T12:06:38;100901.16;;;22.58;38.14
77725;BME280;66892;53.236;6.550;2023-07-02T12:09:05;100910.94;;;22.25;38.66
77725;BME280;66892;53.236;6.550;2023-07-02T12:11:31;100906.91;;;22.17;40.66
77725;BME280;66892;53.236;6.550;2023-07-02T12:13:57;100903.78;;;22.07;41.41
77725;BME280;66892;53.236;6.550;2023-07-02T12:16:23;100916.25;;;21.53;40.41
77725;BME280;66892;53.236;6.550;2023-07-02T12:18:51;100913.47;;;21.18;42.01
77725;BME280;66892;53.236;6.550;2023-07-02T12:21:17;100909.13;;;21.34;42.10
77725;BME280;66892;53.236;6.550;2023-07-02T12:23:45;100906.13;;;21.59;41.89
77725;BME280;66892;53.236;6.550;2023-07-02T12:26:11;100914.44;;;21.54;42.11
77725;BME280;66892;53.236;6.550;2023-07-02T12:28:37;100927.06;;;21.33;42.07
77725;BME280;66892;53.236;6.550;2023-07-02T12:31:03;100920.13;;;21.09;42.30
77725;BME280;66892;53.236;6.550;2023-07-02T12:33:29;100917.81;;;21.00;43.04
77725;BME280;66892;53.236;6.550;2023-07-02T12:35:57;100937.06;;;20.71;43.18
77725;BME280;66892;53.236;6.550;2023-07-02T12:38:25;100925.97;;;20.78;42.75
77725;BME280;66892;53.236;6.550;2023-07-02T12:40:51;100933.06;;;20.59;43.35
77725;BME280;66892;53.236;6.550;2023-07-02T12:43:17;100930.69;;;20.73;43.70
77725;BME280;66892;53.236;6.550;2023-07-02T12:45:43;100943.56;;;20.85;43.68
77725;BME280;66892;53.236;6.550;2023-07-02T12:48:09;100935.91;;;20.76;42.54